createdAt,value
2018-04-24T00:00:17.262Z,50.90
2018-04-24T00:00:55.418Z,50.90
2018-04-24T00:01:33.522Z,50.90
2018-04-24T00:02:10.937Z,50.90
2018-04-24T00:02:49.191Z,51.00
2018-04-24T00:03:27.283Z,51.00
2018-04-24T00:04:04.519Z,51.00
2018-04-24T00:04:42.758Z,51.00
2018-04-24T00:05:20.188Z,51.00
2018-04-24T00:05:57.389Z,51.00
2018-04-24T00:06:36.325Z,51.00
2018-04-24T00:07:14.303Z,51.10
2018-04-24T00:07:52.303Z,51.00
2018-04-24T00:08:29.607Z,51.00
2018-04-24T00:09:07.557Z,51.00
2018-04-24T00:09:45.030Z,51.00
2018-04-24T00:10:22.435Z,51.10
2018-04-24T00:11:00.564Z,51.10
2018-04-24T00:11:38.604Z,51.10
2018-04-24T00:12:15.917Z,51.10
2018-04-24T00:12:53.414Z,51.00
2018-04-24T00:13:31.457Z,51.60
2018-04-24T00:14:09.736Z,51.00
2018-04-24T00:14:47.946Z,51.00
2018-04-24T00:15:25.124Z,51.00
2018-04-24T00:16:02.449Z,51.00
2018-04-24T00:16:40.631Z,51.00
2018-04-24T00:17:17.943Z,51.00
2018-04-24T00:17:55.242Z,51.00
2018-04-24T00:18:33.342Z,51.00
2018-04-24T00:19:10.665Z,51.00
2018-04-24T00:19:48.047Z,51.00
2018-04-24T00:20:26.259Z,51.00
2018-04-24T00:21:03.759Z,51.00
2018-04-24T00:21:41.216Z,51.00
2018-04-24T00:22:19.329Z,51.00
2018-04-24T00:22:56.621Z,51.00
2018-04-24T00:23:33.926Z,51.00
2018-04-24T00:24:12.063Z,51.40
2018-04-24T00:24:49.532Z,51.00
2018-04-24T00:25:26.885Z,51.00
2018-04-24T00:26:04.283Z,51.00
2018-04-24T00:26:41.702Z,51.00
2018-04-24T00:27:19.779Z,51.00
2018-04-24T00:27:57.186Z,51.00
2018-04-24T00:28:35.145Z,51.10
2018-04-24T00:29:12.642Z,51.00
2018-04-24T00:29:50.609Z,51.00
2018-04-24T00:30:27.963Z,51.00
2018-04-24T00:31:05.975Z,51.00
2018-04-24T00:31:43.418Z,50.90
2018-04-24T00:32:21.548Z,51.30
2018-04-24T00:32:58.907Z,50.90
2018-04-24T00:33:37.067Z,51.00
2018-04-24T00:34:14.392Z,50.90
2018-04-24T00:34:51.690Z,50.90
2018-04-24T00:35:29.670Z,50.90
2018-04-24T00:36:07.676Z,51.00
2018-04-24T00:36:44.953Z,51.00
2018-04-24T00:37:22.321Z,50.90
2018-04-24T00:37:59.799Z,51.00
2018-04-24T00:38:37.028Z,51.00
2018-04-24T00:39:14.464Z,51.00
2018-04-24T00:39:51.888Z,51.00
2018-04-24T00:40:30.024Z,51.00
2018-04-24T00:41:07.205Z,50.90
2018-04-24T00:41:45.171Z,50.90
2018-04-24T00:42:22.420Z,50.80
2018-04-24T00:42:59.702Z,50.80
2018-04-24T00:43:37.011Z,50.80
2018-04-24T00:44:14.394Z,50.80
2018-04-24T00:44:52.471Z,50.90
2018-04-24T00:45:29.795Z,50.80
2018-04-24T00:46:08.018Z,50.80
2018-04-24T00:46:46.133Z,50.90
2018-04-24T00:47:23.366Z,50.90
2018-04-24T00:48:00.628Z,50.90
2018-04-24T00:48:38.680Z,50.80
2018-04-24T00:49:16.013Z,50.80
2018-04-24T00:49:54.245Z,50.80
2018-04-24T00:50:31.514Z,50.80
2018-04-24T00:51:08.845Z,50.80
2018-04-24T00:51:46.332Z,50.80
2018-04-24T00:52:23.637Z,50.80
2018-04-24T00:53:01.091Z,50.80
2018-04-24T00:53:38.628Z,50.70
2018-04-24T00:54:15.948Z,50.80
2018-04-24T00:54:54.070Z,50.80
2018-04-24T00:55:31.369Z,50.80
2018-04-24T00:56:08.670Z,50.70
2018-04-24T00:56:46.806Z,50.70
2018-04-24T00:57:24.139Z,50.70
2018-04-24T00:58:02.464Z,50.70
2018-04-24T00:58:40.512Z,50.70
2018-04-24T00:59:17.833Z,50.70
2018-04-24T00:59:55.173Z,50.70
2018-04-24T01:00:32.423Z,50.70
2018-04-24T01:01:09.828Z,50.20
2018-04-24T01:01:47.243Z,50.80
2018-04-24T01:02:24.644Z,50.80
2018-04-24T01:03:02.637Z,50.80
2018-04-24T01:03:40.642Z,50.80
2018-04-24T01:04:18.716Z,50.70
2018-04-24T01:04:56.037Z,50.70
2018-04-24T01:05:33.399Z,50.80
2018-04-24T01:06:10.719Z,50.80
2018-04-24T01:06:49.016Z,50.80
2018-04-24T01:07:27.262Z,50.80
2018-04-24T01:08:04.666Z,50.80
2018-04-24T01:08:42.097Z,50.70
2018-04-24T01:09:19.309Z,50.80
2018-04-24T01:09:56.687Z,50.80
2018-04-24T01:10:33.962Z,50.70
2018-04-24T01:11:11.244Z,50.80
2018-04-24T01:11:48.565Z,50.80
2018-04-24T01:12:25.999Z,50.90
2018-04-24T01:13:03.382Z,50.90
2018-04-24T01:13:40.838Z,50.80
2018-04-24T01:14:18.332Z,50.80
2018-04-24T01:14:55.594Z,50.80
2018-04-24T01:15:33.603Z,50.90
2018-04-24T01:16:10.861Z,50.90
2018-04-24T01:16:48.981Z,50.90
2018-04-24T01:17:26.316Z,50.80
2018-04-24T01:18:04.556Z,50.80
2018-04-24T01:18:41.921Z,50.80
2018-04-24T01:19:19.305Z,50.80
2018-04-24T01:19:56.597Z,50.80
2018-04-24T01:20:34.671Z,50.90
2018-04-24T01:21:12.885Z,50.90
2018-04-24T01:21:50.084Z,50.90
2018-04-24T01:22:28.274Z,50.80
2018-04-24T01:23:05.481Z,50.80
2018-04-24T01:23:42.781Z,50.80
2018-04-24T01:24:20.781Z,50.90
2018-04-24T01:24:58.111Z,50.90
2018-04-24T01:25:35.624Z,50.90
2018-04-24T01:26:13.628Z,50.90
2018-04-24T01:26:50.882Z,50.90
2018-04-24T01:27:28.230Z,50.90
2018-04-24T01:28:06.360Z,51.00
2018-04-24T01:28:43.726Z,51.00
2018-04-24T01:29:21.094Z,50.90
2018-04-24T01:29:59.307Z,50.90
2018-04-24T01:30:36.659Z,50.90
2018-04-24T01:31:14.787Z,51.00
2018-04-24T01:31:52.895Z,51.00
2018-04-24T01:32:30.180Z,51.00
2018-04-24T01:33:07.530Z,51.00
2018-04-24T01:33:44.829Z,51.10
2018-04-24T01:34:22.956Z,51.00
2018-04-24T01:35:00.989Z,51.10
2018-04-24T01:35:38.345Z,51.00
2018-04-24T01:36:15.616Z,51.00
2018-04-24T01:36:52.846Z,51.00
2018-04-24T01:37:30.904Z,51.10
2018-04-24T01:38:09.021Z,51.20
2018-04-24T01:38:47.078Z,51.10
2018-04-24T01:39:24.346Z,51.10
2018-04-24T01:40:01.782Z,51.10
2018-04-24T01:40:39.069Z,51.70
2018-04-24T01:41:17.318Z,51.10
2018-04-24T01:41:54.655Z,51.10
2018-04-24T01:42:32.890Z,51.00
2018-04-24T01:43:10.116Z,51.10
2018-04-24T01:43:47.517Z,51.00
2018-04-24T01:44:25.539Z,51.00
2018-04-24T01:45:02.863Z,51.10
2018-04-24T01:45:40.079Z,51.00
2018-04-24T01:46:17.465Z,51.00
2018-04-24T01:46:55.550Z,51.10
2018-04-24T01:47:32.769Z,51.00
2018-04-24T01:48:10.025Z,51.00
2018-04-24T01:48:47.357Z,51.00
2018-04-24T01:49:25.566Z,51.10
2018-04-24T01:50:02.826Z,51.00
2018-04-24T01:50:41.044Z,51.00
2018-04-24T01:51:18.309Z,51.00
2018-04-24T01:51:56.407Z,51.10
2018-04-24T01:52:33.742Z,51.00
2018-04-24T01:53:11.031Z,51.10
2018-04-24T01:53:49.162Z,51.10
2018-04-24T01:54:26.363Z,51.10
2018-04-24T01:55:03.775Z,51.10
2018-04-24T01:55:41.202Z,51.10
2018-04-24T01:56:18.383Z,51.10
2018-04-24T01:56:56.544Z,51.20
2018-04-24T01:57:34.760Z,51.10
2018-04-24T01:58:12.010Z,51.10
2018-04-24T01:58:50.134Z,51.20
2018-04-24T01:59:27.470Z,51.10
2018-04-24T02:00:05.593Z,51.10
2018-04-24T02:00:42.951Z,51.10
2018-04-24T02:01:21.026Z,51.10
2018-04-24T02:01:58.371Z,51.10
2018-04-24T02:02:35.823Z,51.10
2018-04-24T02:03:13.902Z,51.10
2018-04-24T02:03:51.373Z,51.10
2018-04-24T02:04:28.734Z,51.10
2018-04-24T02:05:06.724Z,51.20
2018-04-24T02:05:44.038Z,51.10
2018-04-24T02:06:22.102Z,51.10
2018-04-24T02:07:00.189Z,51.20
2018-04-24T02:07:37.440Z,51.20
2018-04-24T02:08:14.697Z,51.20
2018-04-24T02:08:52.964Z,51.20
2018-04-24T02:09:31.160Z,51.20
2018-04-24T02:10:08.559Z,51.20
2018-04-24T02:10:46.816Z,51.20
2018-04-24T02:11:25.015Z,51.20
2018-04-24T02:12:03.224Z,51.10
2018-04-24T02:12:40.526Z,51.10
2018-04-24T02:13:18.797Z,51.10
2018-04-24T02:13:56.981Z,51.20
2018-04-24T02:14:34.299Z,51.20
2018-04-24T02:15:12.613Z,51.10
2018-04-24T02:15:50.048Z,51.20
2018-04-24T02:16:28.106Z,51.20
2018-04-24T02:17:05.454Z,51.10
2018-04-24T02:17:43.675Z,51.10
2018-04-24T02:18:21.868Z,51.10
2018-04-24T02:19:00.079Z,51.10
2018-04-24T02:19:37.272Z,51.00
2018-04-24T02:20:14.617Z,51.10
2018-04-24T02:20:52.731Z,51.10
2018-04-24T02:21:31.032Z,51.10
2018-04-24T02:22:08.410Z,51.20
2018-04-24T02:22:46.486Z,51.10
2018-04-24T02:23:23.942Z,51.10
2018-04-24T02:24:02.070Z,51.10
2018-04-24T02:24:39.297Z,51.00
2018-04-24T02:25:16.747Z,51.10
2018-04-24T02:25:54.248Z,51.10
2018-04-24T02:26:32.366Z,51.10
2018-04-24T02:27:09.751Z,51.10
2018-04-24T02:27:46.905Z,51.10
2018-04-24T02:28:24.301Z,51.00
2018-04-24T02:29:01.690Z,51.10
2018-04-24T02:29:39.038Z,51.00
2018-04-24T02:30:17.148Z,51.10
2018-04-24T02:30:54.590Z,51.10
2018-04-24T02:31:31.977Z,51.10
2018-04-24T02:32:09.995Z,51.10
2018-04-24T02:32:47.328Z,51.10
2018-04-24T02:33:25.568Z,51.20
2018-04-24T02:34:02.926Z,51.10
2018-04-24T02:34:40.261Z,51.20
2018-04-24T02:35:17.639Z,51.90
2018-04-24T02:35:55.071Z,51.10
2018-04-24T02:36:32.512Z,51.20
2018-04-24T02:37:09.889Z,51.20
2018-04-24T02:37:48.153Z,51.20
2018-04-24T02:38:26.429Z,51.20
2018-04-24T02:39:03.883Z,51.10
2018-04-24T02:39:42.125Z,51.20
2018-04-24T02:40:20.209Z,51.20
2018-04-24T02:40:57.673Z,51.20
2018-04-24T02:41:35.775Z,51.30
2018-04-24T02:42:13.143Z,51.30
2018-04-24T02:42:50.519Z,51.30
2018-04-24T02:43:27.700Z,51.30
2018-04-24T02:44:05.682Z,51.40
2018-04-24T02:44:42.933Z,51.40
2018-04-24T02:45:20.171Z,51.30
2018-04-24T02:45:57.410Z,51.20
2018-04-24T02:46:34.655Z,51.20
2018-04-24T02:47:12.886Z,51.30
2018-04-24T02:47:50.126Z,51.40
2018-04-24T02:48:27.459Z,51.30
2018-04-24T02:49:05.613Z,51.30
2018-04-24T02:49:42.814Z,51.30
2018-04-24T02:50:20.151Z,51.30
2018-04-24T02:50:57.716Z,51.30
2018-04-24T02:51:35.039Z,51.30
2018-04-24T02:52:12.452Z,51.40
2018-04-24T02:52:49.881Z,51.40
2018-04-24T02:53:27.281Z,51.30
2018-04-24T02:54:04.470Z,51.40
2018-04-24T02:54:41.864Z,51.40
2018-04-24T02:55:20.103Z,51.40
2018-04-24T02:55:58.193Z,51.50
2018-04-24T02:56:36.279Z,51.40
2018-04-24T02:57:13.609Z,51.40
2018-04-24T02:57:51.858Z,51.40
2018-04-24T02:58:29.218Z,51.40
2018-04-24T02:59:07.430Z,51.40
2018-04-24T02:59:44.678Z,51.40
2018-04-24T03:00:22.797Z,51.50
2018-04-24T03:01:00.223Z,51.40
2018-04-24T03:01:38.450Z,51.50
2018-04-24T03:02:16.571Z,51.50
2018-04-24T03:02:54.020Z,51.50
2018-04-24T03:03:32.215Z,51.50
2018-04-24T03:04:09.647Z,51.50
2018-04-24T03:04:47.693Z,51.60
2018-04-24T03:05:25.938Z,51.60
2018-04-24T03:06:04.098Z,51.80
2018-04-24T03:06:41.511Z,51.70
2018-04-24T03:07:18.781Z,51.70
2018-04-24T03:07:56.841Z,51.60
2018-04-24T03:08:34.288Z,51.60
2018-04-24T03:09:12.503Z,51.50
2018-04-24T03:09:50.038Z,51.50
2018-04-24T03:10:28.171Z,51.50
2018-04-24T03:11:06.267Z,51.40
2018-04-24T03:11:44.539Z,51.40
2018-04-24T03:12:21.940Z,51.40
2018-04-24T03:12:59.423Z,51.40
2018-04-24T03:13:37.542Z,51.50
2018-04-24T03:14:15.503Z,51.50
2018-04-24T03:14:53.744Z,51.40
2018-04-24T03:15:30.970Z,51.50
2018-04-24T03:16:08.207Z,51.40
2018-04-24T03:16:45.565Z,51.40
2018-04-24T03:17:22.958Z,51.50
2018-04-24T03:18:00.377Z,51.50
2018-04-24T03:18:38.566Z,51.50
2018-04-24T03:19:15.841Z,51.40
2018-04-24T03:19:53.217Z,51.50
2018-04-24T03:20:30.534Z,51.50
2018-04-24T03:21:07.974Z,51.50
2018-04-24T03:21:45.370Z,51.50
2018-04-24T03:22:22.652Z,51.50
2018-04-24T03:23:00.135Z,51.50
2018-04-24T03:23:37.566Z,51.50
2018-04-24T03:24:15.776Z,52.00
2018-04-24T03:24:53.205Z,51.50
2018-04-24T03:25:30.586Z,51.50
2018-04-24T03:26:08.771Z,51.50
2018-04-24T03:26:46.201Z,51.50
2018-04-24T03:27:23.622Z,51.40
2018-04-24T03:28:01.664Z,51.40
2018-04-24T03:28:38.954Z,51.40
2018-04-24T03:29:17.074Z,51.40
2018-04-24T03:29:54.415Z,51.40
2018-04-24T03:30:32.529Z,51.40
2018-04-24T03:31:09.772Z,51.40
2018-04-24T03:31:47.025Z,51.40
2018-04-24T03:32:25.170Z,51.40
2018-04-24T03:33:02.502Z,51.30
2018-04-24T03:33:39.796Z,51.40
2018-04-24T03:34:17.113Z,51.50
2018-04-24T03:34:55.193Z,51.50
2018-04-24T03:35:32.531Z,51.50
2018-04-24T03:36:10.761Z,51.40
2018-04-24T03:36:48.096Z,51.40
2018-04-24T03:37:26.130Z,51.40
2018-04-24T03:38:03.483Z,51.40
2018-04-24T03:38:41.690Z,51.40
2018-04-24T03:39:19.886Z,51.40
2018-04-24T03:39:57.258Z,51.30
2018-04-24T03:40:35.367Z,51.50
2018-04-24T03:41:13.337Z,51.50
2018-04-24T03:41:51.531Z,51.40
2018-04-24T03:42:28.892Z,51.30
2018-04-24T03:43:07.100Z,51.70
2018-04-24T03:43:44.564Z,51.40
2018-04-24T03:44:21.960Z,51.40
2018-04-24T03:44:59.296Z,51.40
2018-04-24T03:45:36.509Z,51.40
2018-04-24T03:46:13.672Z,51.40
2018-04-24T03:46:50.826Z,51.40
2018-04-24T03:47:29.066Z,51.40
2018-04-24T03:48:06.397Z,51.40
2018-04-24T03:48:43.673Z,51.30
2018-04-24T03:49:21.031Z,51.30
2018-04-24T03:49:59.186Z,51.40
2018-04-24T03:50:37.173Z,51.40
2018-04-24T03:51:14.607Z,51.40
2018-04-24T03:51:51.881Z,51.40
2018-04-24T03:52:29.218Z,51.40
2018-04-24T03:53:06.644Z,51.40
2018-04-24T03:53:44.074Z,51.40
2018-04-24T03:54:21.259Z,51.40
2018-04-24T03:54:58.629Z,51.40
2018-04-24T03:55:35.968Z,51.30
2018-04-24T03:56:13.210Z,51.30
2018-04-24T03:56:50.650Z,51.40
2018-04-24T03:57:28.655Z,51.40
2018-04-24T03:58:05.853Z,51.40
2018-04-24T03:58:43.148Z,51.40
2018-04-24T03:59:20.418Z,51.30
2018-04-24T03:59:57.756Z,51.40
2018-04-24T04:00:34.997Z,51.40
2018-04-24T04:01:12.989Z,51.50
2018-04-24T04:01:50.350Z,51.40
2018-04-24T04:02:27.641Z,51.30
2018-04-24T04:03:05.737Z,51.50
2018-04-24T04:03:43.245Z,51.50
2018-04-24T04:04:20.685Z,51.70
2018-04-24T04:04:58.774Z,51.80
2018-04-24T04:05:36.768Z,51.80
2018-04-24T04:06:14.194Z,51.80
2018-04-24T04:06:51.423Z,51.70
2018-04-24T04:07:29.499Z,51.70
2018-04-24T04:08:06.915Z,51.70
2018-04-24T04:08:44.253Z,51.70
2018-04-24T04:09:21.720Z,51.70
2018-04-24T04:09:59.178Z,51.60
2018-04-24T04:10:36.703Z,51.70
2018-04-24T04:11:14.906Z,51.80
2018-04-24T04:11:52.388Z,51.70
2018-04-24T04:12:30.370Z,51.80
2018-04-24T04:13:07.600Z,51.80
2018-04-24T04:13:45.865Z,51.60
2018-04-24T04:14:23.275Z,51.60
2018-04-24T04:15:01.507Z,51.70
2018-04-24T04:15:39.713Z,51.70
2018-04-24T04:16:16.944Z,51.70
2018-04-24T04:16:54.111Z,51.70
2018-04-24T04:17:32.359Z,51.80
2018-04-24T04:18:09.699Z,51.80
2018-04-24T04:18:47.002Z,51.70
2018-04-24T04:19:24.317Z,51.70
2018-04-24T04:20:02.270Z,52.10
2018-04-24T04:20:39.521Z,52.10
2018-04-24T04:21:17.635Z,53.10
2018-04-24T04:21:54.943Z,53.00
2018-04-24T04:22:32.319Z,52.50
2018-04-24T04:23:09.793Z,52.40
2018-04-24T04:23:46.973Z,52.40
2018-04-24T04:24:24.504Z,52.20
2018-04-24T04:25:01.980Z,52.20
2018-04-24T04:25:39.400Z,52.10
2018-04-24T04:26:17.578Z,52.00
2018-04-24T04:26:54.901Z,52.00
2018-04-24T04:27:32.327Z,51.90
2018-04-24T04:28:10.413Z,52.70
2018-04-24T04:28:47.695Z,53.20
2018-04-24T04:29:25.751Z,52.20
2018-04-24T04:30:03.113Z,52.20
2018-04-24T04:30:40.436Z,52.40
2018-04-24T04:31:18.535Z,52.60
2018-04-24T04:31:55.726Z,52.50
2018-04-24T04:32:33.095Z,52.70
2018-04-24T04:33:10.447Z,53.00
2018-04-24T04:33:47.742Z,53.40
2018-04-24T04:34:25.919Z,53.90
2018-04-24T04:35:03.231Z,53.80
2018-04-24T04:35:41.307Z,54.10
2018-04-24T04:36:19.375Z,54.20
2018-04-24T04:36:56.707Z,54.20
2018-04-24T04:37:34.265Z,54.00
2018-04-24T04:38:11.702Z,54.50
2018-04-24T04:38:49.814Z,54.70
2018-04-24T04:39:27.882Z,54.90
2018-04-24T04:40:05.308Z,54.80
2018-04-24T04:40:43.381Z,55.10
2018-04-24T04:41:21.537Z,54.90
2018-04-24T04:41:58.983Z,54.90
2018-04-24T04:42:36.398Z,55.40
2018-04-24T04:43:13.788Z,54.90
2018-04-24T04:43:51.785Z,54.90
2018-04-24T04:44:29.043Z,54.90
2018-04-24T04:45:06.431Z,55.00
2018-04-24T04:45:44.530Z,55.20
2018-04-24T04:46:21.770Z,55.10
2018-04-24T04:46:59.207Z,54.90
2018-04-24T04:47:37.367Z,55.20
2018-04-24T04:48:14.815Z,55.20
2018-04-24T04:48:52.228Z,54.90
2018-04-24T04:49:29.462Z,55.10
2018-04-24T04:50:06.796Z,54.50
2018-04-24T04:50:44.157Z,54.60
2018-04-24T04:51:21.461Z,54.80
2018-04-24T04:51:59.443Z,54.60
2018-04-24T04:52:37.066Z,54.60
2018-04-24T04:53:14.581Z,54.50
2018-04-24T04:53:52.595Z,54.90
2018-04-24T04:54:29.851Z,55.00
2018-04-24T04:55:07.479Z,55.00
2018-04-24T04:55:44.882Z,54.90
2018-04-24T04:56:22.339Z,54.80
2018-04-24T04:57:00.622Z,54.70
2018-04-24T04:57:38.715Z,54.90
2018-04-24T04:58:16.117Z,54.80
2018-04-24T04:58:54.151Z,54.40
2018-04-24T04:59:32.418Z,55.10
2018-04-24T05:00:10.010Z,55.00
2018-04-24T05:00:48.014Z,54.70
2018-04-24T05:01:25.369Z,54.60
2018-04-24T05:02:03.397Z,54.60
2018-04-24T05:02:40.717Z,54.60
2018-04-24T05:03:17.902Z,55.30
2018-04-24T05:03:55.383Z,55.10
2018-04-24T05:04:32.597Z,54.60
2018-04-24T05:05:10.744Z,54.40
2018-04-24T05:05:48.174Z,54.40
2018-04-24T05:06:25.502Z,55.00
2018-04-24T05:07:02.970Z,54.90
2018-04-24T05:07:40.468Z,55.00
2018-04-24T05:08:17.611Z,54.90
2018-04-24T05:08:55.759Z,54.50
2018-04-24T05:09:33.086Z,54.40
2018-04-24T05:10:11.230Z,55.10
2018-04-24T05:10:48.637Z,55.10
2018-04-24T05:11:26.797Z,54.40
2018-04-24T05:12:04.034Z,54.40
2018-04-24T05:12:41.582Z,54.10
2018-04-24T05:13:19.642Z,53.90
2018-04-24T05:13:57.748Z,54.20
2018-04-24T05:14:35.071Z,54.20
2018-04-24T05:15:12.504Z,54.20
2018-04-24T05:15:49.711Z,54.40
2018-04-24T05:16:27.227Z,54.10
2018-04-24T05:17:04.685Z,54.20
2018-04-24T05:17:42.834Z,54.30
2018-04-24T05:18:20.202Z,54.30
2018-04-24T05:18:57.638Z,54.30
2018-04-24T05:19:35.870Z,54.20
2018-04-24T05:20:13.242Z,54.20
2018-04-24T05:20:50.742Z,54.00
2018-04-24T05:21:28.820Z,54.40
2018-04-24T05:22:06.927Z,54.70
2018-04-24T05:22:44.262Z,54.70
2018-04-24T05:23:22.510Z,54.50
2018-04-24T05:24:00.689Z,54.80
2018-04-24T05:24:37.885Z,54.80
2018-04-24T05:25:15.182Z,54.60
2018-04-24T05:25:52.474Z,54.30
2018-04-24T05:26:29.785Z,54.40
2018-04-24T05:27:08.065Z,55.50
2018-04-24T05:27:46.161Z,54.40
2018-04-24T05:28:23.522Z,54.40
2018-04-24T05:29:01.639Z,54.10
2018-04-24T05:29:38.943Z,54.10
2018-04-24T05:30:16.298Z,54.00
2018-04-24T05:30:54.494Z,54.30
2018-04-24T05:31:32.575Z,54.00
2018-04-24T05:32:09.927Z,53.90
2018-04-24T05:32:48.041Z,54.20
2018-04-24T05:33:26.179Z,54.30
2018-04-24T05:34:04.314Z,54.10
2018-04-24T05:34:42.510Z,54.30
2018-04-24T05:35:19.677Z,54.20
2018-04-24T05:35:56.927Z,53.90
2018-04-24T05:36:34.406Z,53.80
2018-04-24T05:37:11.690Z,54.10
2018-04-24T05:37:49.097Z,53.90
2018-04-24T05:38:27.205Z,54.00
2018-04-24T05:39:04.519Z,53.90
2018-04-24T05:39:41.798Z,54.10
2018-04-24T05:40:19.096Z,53.70
2018-04-24T05:40:56.281Z,54.10
2018-04-24T05:41:33.773Z,54.10
2018-04-24T05:42:11.760Z,54.30
2018-04-24T05:42:49.910Z,54.10
2018-04-24T05:43:27.334Z,54.00
2018-04-24T05:44:04.613Z,53.90
2018-04-24T05:44:42.703Z,54.10
2018-04-24T05:45:20.126Z,54.10
2018-04-24T05:45:58.271Z,54.20
2018-04-24T05:46:35.574Z,54.20
2018-04-24T05:47:12.824Z,54.10
2018-04-24T05:47:49.993Z,54.00
2018-04-24T05:48:28.165Z,53.80
2018-04-24T05:49:05.608Z,53.80
2018-04-24T05:49:43.754Z,53.90
2018-04-24T05:50:21.029Z,54.00
2018-04-24T05:50:58.460Z,53.50
2018-04-24T05:51:36.620Z,53.50
2018-04-24T05:52:14.063Z,53.50
2018-04-24T05:52:52.323Z,53.70
2018-04-24T05:53:30.354Z,53.90
2018-04-24T05:54:08.556Z,53.70
2018-04-24T05:54:45.867Z,53.70
2018-04-24T05:55:23.131Z,54.00
2018-04-24T05:56:00.406Z,53.60
2018-04-24T05:56:38.528Z,53.70
2018-04-24T05:57:16.562Z,53.60
2018-04-24T05:57:53.996Z,53.60
2018-04-24T05:58:32.245Z,53.60
2018-04-24T05:59:10.446Z,53.70
2018-04-24T05:59:47.754Z,53.70
2018-04-24T06:00:25.136Z,53.70
2018-04-24T06:01:03.196Z,53.50
2018-04-24T06:01:40.603Z,53.50
2018-04-24T06:02:18.671Z,53.60
2018-04-24T06:02:56.376Z,53.60
2018-04-24T06:03:33.751Z,53.50
2018-04-24T06:04:11.240Z,53.70
2018-04-24T06:04:48.716Z,53.80
2018-04-24T06:05:26.085Z,53.90
2018-04-24T06:06:04.155Z,53.80
2018-04-24T06:06:42.354Z,53.70
2018-04-24T06:07:20.438Z,54.00
2018-04-24T06:07:57.682Z,54.00
2018-04-24T06:08:35.123Z,54.00
2018-04-24T06:09:12.588Z,53.70
2018-04-24T06:09:49.907Z,53.50
2018-04-24T06:10:27.927Z,53.50
2018-04-24T06:11:05.212Z,53.60
2018-04-24T06:11:43.319Z,53.70
2018-04-24T06:12:20.650Z,53.70
2018-04-24T06:12:58.070Z,53.70
2018-04-24T06:13:35.414Z,53.80
2018-04-24T06:14:12.761Z,53.40
2018-04-24T06:14:50.238Z,53.60
2018-04-24T06:15:27.659Z,53.50
2018-04-24T06:16:04.906Z,53.70
2018-04-24T06:16:42.938Z,53.60
2018-04-24T06:17:20.327Z,53.60
2018-04-24T06:17:57.544Z,53.60
2018-04-24T06:18:35.784Z,53.20
2018-04-24T06:19:13.966Z,53.20
2018-04-24T06:19:51.328Z,53.10
2018-04-24T06:20:28.703Z,53.20
2018-04-24T06:21:06.181Z,53.30
2018-04-24T06:21:43.687Z,53.40
2018-04-24T06:22:21.010Z,53.40
2018-04-24T06:22:58.418Z,53.50
2018-04-24T06:23:35.813Z,53.60
2018-04-24T06:24:13.097Z,53.70
2018-04-24T06:24:50.350Z,53.70
2018-04-24T06:25:28.460Z,53.70
2018-04-24T06:26:06.659Z,53.60
2018-04-24T06:26:44.749Z,53.50
2018-04-24T06:27:22.094Z,53.50
2018-04-24T06:28:00.325Z,53.50
2018-04-24T06:28:37.713Z,53.40
2018-04-24T06:29:15.972Z,53.50
2018-04-24T06:29:54.107Z,53.30
2018-04-24T06:30:32.276Z,53.20
2018-04-24T06:31:09.601Z,53.20
2018-04-24T06:31:46.969Z,53.10
2018-04-24T06:32:24.366Z,53.80
2018-04-24T06:33:02.588Z,53.50
2018-04-24T06:33:39.772Z,53.40
2018-04-24T06:34:17.867Z,53.40
2018-04-24T06:34:55.984Z,53.40
2018-04-24T06:35:33.354Z,53.30
2018-04-24T06:36:10.717Z,53.30
2018-04-24T06:36:48.732Z,53.40
2018-04-24T06:37:26.123Z,53.40
2018-04-24T06:38:03.671Z,53.50
2018-04-24T06:38:41.867Z,53.20
2018-04-24T06:39:19.029Z,53.20
2018-04-24T06:39:56.496Z,53.50
2018-04-24T06:40:34.601Z,53.20
2018-04-24T06:41:11.946Z,53.20
2018-04-24T06:41:49.410Z,53.30
2018-04-24T06:42:26.785Z,53.10
2018-04-24T06:43:04.185Z,53.30
2018-04-24T06:43:42.320Z,53.10
2018-04-24T06:44:19.656Z,53.10
2018-04-24T06:44:57.890Z,53.20
2018-04-24T06:45:35.226Z,53.00
2018-04-24T06:46:13.234Z,52.90
2018-04-24T06:46:50.667Z,52.90
2018-04-24T06:47:27.859Z,53.20
2018-04-24T06:48:06.107Z,53.50
2018-04-24T06:48:44.295Z,53.40
2018-04-24T06:49:22.495Z,53.30
2018-04-24T06:49:59.708Z,53.20
2018-04-24T06:50:37.173Z,53.30
2018-04-24T06:51:15.435Z,53.30
2018-04-24T06:51:52.823Z,53.30
2018-04-24T06:52:30.986Z,53.50
2018-04-24T06:53:09.109Z,53.70
2018-04-24T06:53:46.445Z,53.60
2018-04-24T06:54:24.675Z,53.30
2018-04-24T06:55:01.974Z,53.30
2018-04-24T06:55:40.234Z,53.20
2018-04-24T06:56:17.538Z,53.20
2018-04-24T06:56:54.866Z,53.20
2018-04-24T06:57:32.420Z,53.10
2018-04-24T06:58:09.699Z,53.20
2018-04-24T06:58:47.170Z,53.30
2018-04-24T06:59:24.522Z,53.40
2018-04-24T07:00:01.814Z,53.40
2018-04-24T07:00:40.151Z,53.00
2018-04-24T07:01:18.369Z,53.10
2018-04-24T07:01:56.461Z,53.00
2018-04-24T07:02:33.691Z,52.90
2018-04-24T07:03:11.138Z,53.00
2018-04-24T07:03:48.459Z,53.50
2018-04-24T07:04:25.975Z,53.10
2018-04-24T07:05:03.403Z,53.20
2018-04-24T07:05:40.762Z,53.40
2018-04-24T07:06:18.182Z,53.20
2018-04-24T07:06:55.699Z,53.20
2018-04-24T07:07:33.800Z,53.20
2018-04-24T07:08:11.867Z,53.20
2018-04-24T07:08:49.108Z,53.20
2018-04-24T07:09:26.522Z,53.20
2018-04-24T07:10:04.659Z,52.90
2018-04-24T07:10:42.906Z,52.90
2018-04-24T07:11:20.237Z,52.70
2018-04-24T07:11:57.628Z,53.00
2018-04-24T07:12:34.994Z,53.10
2018-04-24T07:13:13.238Z,52.80
2018-04-24T07:13:51.218Z,53.00
2018-04-24T07:14:28.615Z,52.90
2018-04-24T07:15:05.875Z,53.30
2018-04-24T07:15:44.054Z,53.00
2018-04-24T07:16:22.058Z,53.00
2018-04-24T07:16:59.353Z,53.00
2018-04-24T07:17:36.507Z,53.00
2018-04-24T07:18:13.747Z,53.00
2018-04-24T07:18:51.971Z,53.30
2018-04-24T07:19:30.058Z,53.20
2018-04-24T07:20:07.394Z,53.00
2018-04-24T07:20:45.737Z,53.20
2018-04-24T07:21:23.071Z,53.20
2018-04-24T07:22:01.331Z,53.30
2018-04-24T07:22:39.406Z,53.30
2018-04-24T07:23:16.753Z,53.40
2018-04-24T07:23:54.977Z,53.40
2018-04-24T07:24:32.230Z,53.40
2018-04-24T07:25:09.421Z,54.10
2018-04-24T07:25:46.866Z,53.50
2018-04-24T07:26:24.094Z,53.50
2018-04-24T07:27:02.080Z,53.60
2018-04-24T07:27:41.069Z,53.30
2018-04-24T07:28:18.492Z,53.30
2018-04-24T07:28:56.013Z,53.30
2018-04-24T07:29:33.340Z,53.30
2018-04-24T07:30:10.710Z,53.40
2018-04-24T07:30:48.783Z,53.50
2018-04-24T07:31:26.981Z,53.30
2018-04-24T07:32:05.071Z,53.40
2018-04-24T07:32:42.347Z,53.40
2018-04-24T07:33:19.570Z,53.30
2018-04-24T07:33:56.997Z,53.50
2018-04-24T07:34:35.086Z,53.60
2018-04-24T07:35:12.309Z,53.60
2018-04-24T07:35:50.445Z,53.30
2018-04-24T07:36:27.831Z,53.30
2018-04-24T07:37:05.126Z,53.60
2018-04-24T07:37:43.203Z,53.40
2018-04-24T07:38:20.529Z,53.40
2018-04-24T07:38:57.850Z,53.40
2018-04-24T07:39:35.071Z,53.20
2018-04-24T07:40:13.318Z,53.30
2018-04-24T07:40:51.517Z,53.30
2018-04-24T07:41:29.608Z,53.40
2018-04-24T07:42:06.858Z,53.40
2018-04-24T07:42:44.227Z,53.50
2018-04-24T07:43:21.482Z,53.40
2018-04-24T07:43:58.936Z,53.50
2018-04-24T07:44:37.087Z,53.50
2018-04-24T07:45:15.197Z,53.60
2018-04-24T07:45:53.395Z,53.70
2018-04-24T07:46:30.815Z,53.70
2018-04-24T07:47:09.056Z,53.30
2018-04-24T07:47:47.158Z,53.30
2018-04-24T07:48:24.381Z,53.30
2018-04-24T07:49:01.679Z,53.40
2018-04-24T07:49:39.903Z,53.30
2018-04-24T07:50:17.133Z,53.30
2018-04-24T07:50:55.422Z,53.00
2018-04-24T07:51:32.717Z,53.00
2018-04-24T07:52:10.137Z,53.10
2018-04-24T07:52:47.418Z,53.20
2018-04-24T07:53:25.490Z,53.80
2018-04-24T07:54:03.691Z,53.10
2018-04-24T07:54:41.209Z,53.10
2018-04-24T07:55:18.706Z,53.10
2018-04-24T07:55:56.962Z,52.80
2018-04-24T07:56:34.270Z,52.80
2018-04-24T07:57:12.492Z,53.30
2018-04-24T07:57:50.491Z,52.70
2018-04-24T07:58:27.697Z,52.70
2018-04-24T07:59:05.665Z,52.90
2018-04-24T07:59:42.957Z,52.80
2018-04-24T08:00:21.070Z,52.70
2018-04-24T08:00:58.994Z,53.10
2018-04-24T08:01:36.361Z,52.80
2018-04-24T08:02:13.871Z,52.60
2018-04-24T08:02:52.075Z,52.70
2018-04-24T08:03:29.370Z,52.60
2018-04-24T08:04:06.683Z,52.70
2018-04-24T08:04:44.814Z,52.30